createdAt,value
2018-07-21T00:00:08.076Z,8.57
2018-07-21T00:02:36.738Z,8.83
2018-07-21T00:05:05.418Z,8.63
2018-07-21T00:07:34.081Z,9.00
2018-07-21T00:10:02.717Z,8.93
2018-07-21T00:12:31.359Z,8.57
2018-07-21T00:15:00.052Z,8.83
2018-07-21T00:17:28.699Z,8.73
2018-07-21T00:19:57.317Z,8.50
2018-07-21T00:22:25.907Z,8.70
2018-07-21T00:24:54.499Z,8.93
2018-07-21T00:27:23.083Z,8.80
2018-07-21T00:29:51.700Z,8.93
2018-07-21T00:32:20.268Z,8.07
2018-07-21T00:34:48.985Z,7.93
2018-07-21T00:37:17.600Z,8.43
2018-07-21T00:39:46.184Z,8.20
2018-07-21T00:42:14.892Z,8.10
2018-07-21T00:44:43.691Z,8.40
2018-07-21T00:47:12.326Z,8.40
2018-07-21T00:49:41.006Z,7.83
2018-07-21T00:52:09.652Z,8.40
2018-07-21T00:54:38.224Z,9.10
2018-07-21T00:57:06.901Z,7.77
2018-07-21T00:59:35.514Z,8.33
2018-07-21T01:02:04.202Z,8.57
2018-07-21T01:04:32.919Z,8.40
2018-07-21T01:07:01.541Z,8.67
2018-07-21T01:09:30.173Z,8.77
2018-07-21T01:11:58.786Z,8.83
2018-07-21T01:14:27.385Z,7.70
2018-07-21T01:16:56.115Z,8.07
2018-07-21T01:19:24.848Z,8.40
2018-07-21T01:21:53.578Z,8.80
2018-07-21T01:24:22.252Z,8.33
2018-07-21T01:26:50.809Z,8.53
2018-07-21T01:29:23.228Z,8.47
2018-07-21T01:31:51.851Z,8.43
2018-07-21T01:34:20.432Z,8.50
2018-07-21T01:36:49.029Z,8.73
2018-07-21T01:39:17.681Z,8.50
2018-07-21T01:41:46.431Z,9.30
2018-07-21T01:44:15.079Z,9.03
2018-07-21T01:46:44.136Z,9.17
2018-07-21T01:49:12.730Z,9.30
2018-07-21T01:51:41.390Z,9.27
2018-07-21T01:54:09.951Z,9.47
2018-07-21T01:56:38.608Z,9.10
2018-07-21T01:59:07.154Z,9.60
2018-07-21T02:01:35.772Z,9.27
2018-07-21T02:04:04.326Z,8.80
2018-07-21T02:06:33.072Z,9.70
2018-07-21T02:09:01.776Z,10.10
2018-07-21T02:11:30.386Z,9.97
2018-07-21T02:13:59.074Z,9.37
2018-07-21T02:16:27.812Z,9.57
2018-07-21T02:18:56.443Z,9.80
2018-07-21T02:21:25.158Z,10.13
2018-07-21T02:23:53.732Z,10.70
2018-07-21T02:26:22.350Z,9.97
2018-07-21T02:28:51.036Z,9.60
2018-07-21T02:31:19.865Z,8.90
2018-07-21T02:33:48.546Z,9.10
2018-07-21T02:36:17.243Z,9.93
2018-07-21T02:38:45.865Z,10.10
2018-07-21T02:41:14.629Z,9.43
2018-07-21T02:43:43.204Z,9.60
2018-07-21T02:46:17.961Z,9.60
2018-07-21T02:48:46.611Z,8.93
2018-07-21T02:51:15.434Z,9.43
2018-07-21T02:53:44.011Z,9.30
2018-07-21T02:56:12.576Z,9.00
2018-07-21T02:58:41.195Z,9.83
2018-07-21T03:01:09.781Z,9.77
2018-07-21T03:03:38.374Z,9.90
2018-07-21T03:06:06.983Z,10.07
2018-07-21T03:08:35.688Z,9.70
2018-07-21T03:11:04.327Z,9.57
2018-07-21T03:13:34.185Z,8.97
2018-07-21T03:16:02.872Z,9.60
2018-07-21T03:18:31.430Z,9.10
2018-07-21T03:20:59.992Z,9.00
2018-07-21T03:23:28.674Z,8.30
2018-07-21T03:25:57.406Z,8.93
2018-07-21T03:28:26.023Z,7.73
2018-07-21T03:30:54.630Z,8.97
2018-07-21T03:33:23.196Z,8.57
2018-07-21T03:35:52.002Z,8.23
2018-07-21T03:38:20.650Z,8.50
2018-07-21T03:40:49.251Z,8.47
2018-07-21T03:43:17.868Z,9.30
2018-07-21T03:45:46.633Z,8.93
2018-07-21T03:48:15.256Z,8.80
2018-07-21T03:50:43.877Z,8.50
2018-07-21T03:53:12.563Z,8.40
2018-07-21T03:55:41.178Z,8.87
2018-07-21T03:58:09.938Z,8.57
2018-07-21T04:00:38.521Z,8.80
2018-07-21T04:03:07.160Z,8.87
2018-07-21T04:05:35.694Z,8.60
2018-07-21T04:08:04.443Z,8.37
2018-07-21T04:10:33.027Z,8.67
2018-07-21T04:13:01.873Z,8.30
2018-07-21T04:15:30.395Z,8.40
2018-07-21T04:17:58.932Z,8.67
2018-07-21T04:20:27.527Z,8.90
2018-07-21T04:22:56.209Z,8.67
2018-07-21T04:25:24.986Z,8.30
2018-07-21T04:27:53.633Z,7.63
2018-07-21T04:30:22.270Z,8.13
2018-07-21T04:32:50.944Z,8.03
2018-07-21T04:35:19.558Z,8.03
2018-07-21T04:37:48.141Z,8.63
2018-07-21T04:40:16.752Z,8.43
2018-07-21T04:42:45.441Z,8.30
2018-07-21T04:45:14.088Z,8.47
2018-07-21T04:47:42.685Z,8.03
2018-07-21T04:50:11.288Z,7.97
2018-07-21T04:52:40.057Z,7.33
2018-07-21T04:55:08.773Z,7.50
2018-07-21T04:57:37.310Z,7.50
2018-07-21T05:00:06.743Z,7.83
2018-07-21T05:02:35.344Z,7.67
2018-07-21T05:05:04.184Z,8.10
2018-07-21T05:07:32.860Z,7.50
2018-07-21T05:10:01.471Z,8.00
2018-07-21T05:12:30.148Z,8.63
2018-07-21T05:14:58.818Z,7.60
2018-07-21T05:17:27.556Z,8.33
2018-07-21T05:19:56.373Z,8.47
2018-07-21T05:22:25.018Z,8.07
2018-07-21T05:24:53.590Z,8.53
2018-07-21T05:27:22.379Z,8.27
2018-07-21T05:29:50.904Z,8.27
2018-07-21T05:32:19.598Z,8.40
2018-07-21T05:34:48.287Z,9.17
2018-07-21T05:37:16.885Z,8.63
2018-07-21T05:39:46.039Z,7.93
2018-07-21T05:42:14.798Z,8.20
2018-07-21T05:44:43.422Z,8.50
2018-07-21T05:47:12.125Z,8.63
2018-07-21T05:49:40.738Z,8.63
2018-07-21T05:52:09.485Z,8.93
2018-07-21T05:54:38.167Z,9.10
2018-07-21T05:57:06.951Z,9.60
2018-07-21T05:59:35.515Z,9.23
2018-07-21T06:02:04.257Z,8.93
2018-07-21T06:04:32.803Z,9.00
2018-07-21T06:07:01.435Z,9.80
2018-07-21T06:09:30.021Z,9.10
2018-07-21T06:11:58.618Z,9.27
2018-07-21T06:14:27.261Z,9.77
2018-07-21T06:16:55.937Z,9.60
2018-07-21T06:19:24.732Z,9.47
2018-07-21T06:21:53.391Z,9.57
2018-07-21T06:24:22.159Z,10.03
2018-07-21T06:26:50.880Z,10.40
2018-07-21T06:29:19.547Z,9.47
2018-07-21T06:31:48.089Z,10.53
2018-07-21T06:34:16.938Z,10.00
2018-07-21T06:36:45.862Z,11.37
2018-07-21T06:39:14.799Z,10.00
2018-07-21T06:41:43.435Z,11.20
2018-07-21T06:44:12.058Z,10.87
2018-07-21T06:46:40.720Z,11.37
2018-07-21T06:49:09.391Z,11.37
2018-07-21T06:51:38.055Z,11.87
2018-07-21T06:54:06.929Z,11.27
2018-07-21T06:56:35.672Z,11.53
2018-07-21T06:59:04.309Z,11.17
2018-07-21T07:01:32.926Z,10.60
2018-07-21T07:04:01.469Z,10.43
2018-07-21T07:06:30.140Z,10.57
2018-07-21T07:08:58.772Z,10.37
2018-07-21T07:11:27.491Z,10.30
2018-07-21T07:13:56.225Z,10.40
2018-07-21T07:16:24.856Z,9.83
2018-07-21T07:18:53.396Z,10.93
2018-07-21T07:21:22.204Z,11.43
2018-07-21T07:23:50.825Z,11.83
2018-07-21T07:26:19.592Z,12.43
2018-07-21T07:28:48.548Z,12.57
2018-07-21T07:31:17.092Z,11.93
2018-07-21T07:33:45.625Z,10.57
2018-07-21T07:36:14.260Z,10.53
2018-07-21T07:38:42.830Z,10.37
2018-07-21T07:41:11.401Z,9.93
2018-07-21T07:43:39.980Z,10.40
2018-07-21T07:46:08.750Z,11.00
2018-07-21T07:48:37.597Z,10.30
2018-07-21T07:51:06.262Z,10.47
2018-07-21T07:53:35.948Z,10.10
2018-07-21T07:56:04.591Z,8.97
2018-07-21T07:58:33.443Z,8.40
2018-07-21T08:01:02.095Z,8.63
2018-07-21T08:03:30.818Z,8.33
2018-07-21T08:05:59.454Z,8.27
2018-07-21T08:08:28.113Z,8.57
2018-07-21T08:10:56.914Z,8.57
2018-07-21T08:13:25.720Z,8.33
2018-07-21T08:15:54.301Z,7.77
2018-07-21T08:18:23.027Z,8.50
2018-07-21T08:20:51.516Z,7.77
2018-07-21T08:23:20.176Z,7.53
2018-07-21T08:25:48.702Z,7.63
2018-07-21T08:28:17.280Z,7.13
2018-07-21T08:30:45.888Z,7.13
2018-07-21T08:33:14.510Z,7.57
2018-07-21T08:35:43.116Z,10.00
2018-07-21T08:38:11.838Z,10.30
2018-07-21T08:40:40.507Z,11.33
2018-07-21T08:43:09.225Z,10.87
2018-07-21T08:45:37.908Z,10.40
2018-07-21T08:48:06.537Z,10.23
2018-07-21T08:50:35.116Z,9.87
2018-07-21T08:53:03.891Z,10.10
2018-07-21T08:55:32.456Z,9.73
2018-07-21T08:58:01.224Z,10.57
2018-07-21T09:00:30.166Z,9.67
2018-07-21T09:02:58.756Z,10.67
2018-07-21T09:05:27.404Z,10.90
2018-07-21T09:07:56.068Z,11.00
2018-07-21T09:10:24.818Z,10.47
2018-07-21T09:12:53.572Z,10.43
2018-07-21T09:15:22.258Z,10.70
2018-07-21T09:17:50.934Z,10.77
2018-07-21T09:20:19.642Z,9.97
2018-07-21T09:22:48.299Z,9.70
2018-07-21T09:25:16.950Z,10.10
2018-07-21T09:27:45.512Z,10.47
2018-07-21T09:30:14.127Z,11.73
2018-07-21T09:32:42.922Z,12.13
2018-07-21T09:35:11.482Z,11.00
2018-07-21T09:37:40.295Z,10.47
2018-07-21T09:40:09.052Z,11.33
2018-07-21T09:42:37.837Z,11.33
2018-07-21T09:45:06.725Z,11.83
2018-07-21T09:47:35.518Z,11.97
2018-07-21T09:50:04.428Z,12.37
2018-07-21T09:52:33.241Z,12.90
2018-07-21T09:55:01.815Z,13.17
2018-07-21T09:57:30.392Z,13.87
2018-07-21T09:59:59.315Z,14.50
2018-07-21T10:02:28.009Z,15.30
2018-07-21T10:04:57.317Z,14.93
2018-07-21T10:07:26.056Z,14.50
2018-07-21T10:09:54.872Z,17.57
2018-07-21T10:12:23.464Z,17.65
2018-07-21T10:14:52.168Z,11.27
2018-07-21T10:17:20.773Z,20.77
2018-07-21T10:19:49.430Z,20.43
2018-07-21T10:22:18.099Z,18.87
2018-07-21T10:24:51.994Z,21.73
2018-07-21T10:27:20.616Z,20.10
2018-07-21T10:29:49.656Z,22.63
2018-07-21T10:32:18.353Z,21.63
2018-07-21T10:34:46.926Z,20.40
2018-07-21T10:37:15.606Z,31.60
2018-07-21T10:39:44.349Z,26.33
2018-07-21T10:42:12.990Z,17.77
2018-07-21T10:44:41.524Z,19.67
2018-07-21T10:47:10.183Z,21.20
2018-07-21T10:49:38.818Z,21.87
2018-07-21T10:52:07.478Z,20.07
2018-07-21T10:54:36.064Z,19.23
2018-07-21T10:57:04.683Z,17.27
2018-07-21T10:59:33.227Z,21.60
2018-07-21T11:02:01.908Z,14.97
2018-07-21T11:04:30.509Z,16.50
2018-07-21T11:06:59.146Z,14.20
2018-07-21T11:09:27.967Z,13.47
2018-07-21T11:11:56.559Z,14.13
2018-07-21T11:14:25.301Z,16.70
2018-07-21T11:16:53.967Z,12.30
2018-07-21T11:19:22.607Z,16.30
2018-07-21T11:21:51.265Z,11.10
2018-07-21T11:24:19.891Z,11.67
2018-07-21T11:26:48.524Z,13.30
2018-07-21T11:29:17.161Z,12.83
2018-07-21T11:31:45.883Z,13.17
2018-07-21T11:34:14.605Z,12.10
2018-07-21T11:36:43.142Z,12.90
2018-07-21T11:39:11.851Z,14.87
2018-07-21T11:41:40.628Z,14.80
2018-07-21T11:44:09.395Z,12.17
2018-07-21T11:46:37.967Z,13.17
2018-07-21T11:49:06.559Z,15.27
2018-07-21T11:51:35.143Z,12.70
2018-07-21T11:54:03.731Z,11.00
2018-07-21T11:56:32.426Z,12.00
2018-07-21T11:59:01.189Z,10.03
2018-07-21T12:01:30.037Z,9.90
2018-07-21T12:03:58.643Z,10.77
2018-07-21T12:06:27.289Z,11.30
2018-07-21T12:08:55.882Z,10.93
2018-07-21T12:11:24.534Z,11.67
2018-07-21T12:13:53.158Z,11.53
2018-07-21T12:16:21.829Z,12.30
2018-07-21T12:18:50.517Z,11.87
2018-07-21T12:21:19.289Z,12.07
2018-07-21T12:23:47.972Z,12.73
2018-07-21T12:26:16.807Z,12.03
2018-07-21T12:28:45.316Z,12.20
2018-07-21T12:31:13.922Z,11.50
2018-07-21T12:33:42.681Z,12.17
2018-07-21T12:36:11.399Z,12.97
2018-07-21T12:38:40.226Z,12.07
2018-07-21T12:41:08.904Z,11.00
2018-07-21T12:43:37.563Z,10.30
2018-07-21T12:46:06.317Z,10.67
2018-07-21T12:48:35.075Z,9.80
2018-07-21T12:51:03.934Z,10.97
2018-07-21T12:53:32.595Z,11.20
2018-07-21T12:56:01.312Z,10.20
2018-07-21T12:58:30.188Z,11.10
2018-07-21T13:00:58.749Z,11.57
2018-07-21T13:03:27.657Z,10.53
2018-07-21T13:05:56.225Z,10.07
2018-07-21T13:08:24.995Z,11.53
2018-07-21T13:10:53.704Z,11.87
2018-07-21T13:13:22.423Z,11.37
2018-07-21T13:15:51.192Z,11.70
2018-07-21T13:18:19.913Z,10.33
2018-07-21T13:20:48.887Z,11.10
2018-07-21T13:23:17.842Z,10.13
2018-07-21T13:25:46.593Z,9.05
2018-07-21T13:28:15.300Z,9.10
2018-07-21T13:30:44.065Z,7.55
2018-07-21T13:33:12.867Z,8.08
2018-07-21T13:35:41.596Z,8.55
2018-07-21T13:38:10.428Z,8.40
2018-07-21T13:40:39.207Z,9.15
2018-07-21T13:43:08.075Z,9.68
2018-07-21T13:45:36.746Z,8.80
2018-07-21T13:48:05.536Z,9.10
2018-07-21T13:50:34.086Z,9.38
2018-07-21T13:53:02.716Z,10.28
2018-07-21T13:55:31.360Z,9.05
2018-07-21T13:57:59.961Z,9.73
2018-07-21T14:00:29.622Z,9.63
2018-07-21T14:02:58.322Z,7.60
2018-07-21T14:05:27.135Z,8.85
2018-07-21T14:07:55.944Z,7.40
2018-07-21T14:10:24.849Z,6.87
2018-07-21T14:12:53.425Z,6.55
2018-07-21T14:15:22.055Z,6.75
2018-07-21T14:17:50.818Z,6.80
2018-07-21T14:20:19.777Z,6.53
2018-07-21T14:22:48.862Z,5.97
2018-07-21T14:25:17.465Z,5.75
2018-07-21T14:27:46.241Z,5.83
2018-07-21T14:30:18.317Z,6.10
2018-07-21T14:32:48.111Z,5.03
2018-07-21T14:35:17.924Z,4.92
2018-07-21T14:37:46.462Z,5.20
2018-07-21T14:40:15.006Z,4.70
2018-07-21T14:42:43.639Z,4.20
2018-07-21T14:45:12.276Z,5.00
2018-07-21T14:47:40.809Z,4.85
2018-07-21T14:50:09.522Z,5.15
2018-07-21T14:52:38.175Z,4.55
2018-07-21T14:55:07.027Z,4.20
2018-07-21T14:57:35.679Z,4.97
2018-07-21T15:00:05.519Z,4.08
2018-07-21T15:02:34.112Z,4.37
2018-07-21T15:05:02.782Z,4.40
2018-07-21T15:07:31.670Z,5.62
2018-07-21T15:10:00.368Z,5.20
2018-07-21T15:12:29.081Z,3.95
2018-07-21T15:14:57.734Z,4.05
2018-07-21T15:17:26.535Z,4.72
2018-07-21T15:19:55.318Z,4.47
2018-07-21T15:22:24.093Z,4.85
2018-07-21T15:24:52.953Z,4.40
2018-07-21T15:27:21.779Z,4.20
2018-07-21T15:29:50.686Z,4.08
2018-07-21T15:32:19.512Z,4.25
2018-07-21T15:34:48.338Z,3.92
2018-07-21T15:37:17.105Z,4.22
2018-07-21T15:39:45.829Z,4.00
2018-07-21T15:42:14.612Z,3.90
2018-07-21T15:44:43.367Z,3.83
2018-07-21T15:47:12.042Z,3.85
2018-07-21T15:49:41.014Z,4.20
2018-07-21T15:52:09.791Z,3.67
2018-07-21T15:54:38.373Z,4.12
2018-07-21T15:57:07.244Z,3.87
2018-07-21T15:59:35.946Z,4.60
2018-07-21T16:02:04.588Z,5.03
2018-07-21T16:04:33.261Z,4.70
2018-07-21T16:07:01.922Z,4.92
2018-07-21T16:09:30.707Z,5.20
2018-07-21T16:11:59.276Z,5.12
2018-07-21T16:14:27.955Z,4.80
2018-07-21T16:16:56.657Z,5.35
2018-07-21T16:19:25.401Z,5.65
2018-07-21T16:21:54.410Z,5.28
2018-07-21T16:24:23.225Z,5.62
2018-07-21T16:26:51.804Z,5.90
2018-07-21T16:29:20.431Z,5.53
2018-07-21T16:31:49.193Z,10.30
2018-07-21T16:34:18.100Z,5.83
2018-07-21T16:36:46.700Z,6.30
2018-07-21T16:39:15.513Z,6.67
2018-07-21T16:41:44.209Z,6.40
2018-07-21T16:44:12.959Z,6.30
2018-07-21T16:46:41.618Z,6.40
2018-07-21T16:49:10.351Z,6.33
2018-07-21T16:51:39.157Z,6.97
2018-07-21T16:54:07.804Z,7.40
2018-07-21T16:56:36.603Z,6.40
2018-07-21T16:59:05.329Z,6.37
2018-07-21T17:01:34.089Z,7.03
2018-07-21T17:04:02.788Z,7.57
2018-07-21T17:06:31.577Z,7.50
2018-07-21T17:09:00.276Z,6.13
2018-07-21T17:11:29.102Z,5.80
2018-07-21T17:13:57.854Z,6.03
2018-07-21T17:16:26.612Z,6.53
2018-07-21T17:18:55.437Z,5.07
2018-07-21T17:21:24.333Z,5.57
2018-07-21T17:23:53.015Z,5.10
2018-07-21T17:26:21.771Z,5.00
2018-07-21T17:28:50.377Z,3.60
2018-07-21T17:31:19.556Z,3.53
2018-07-21T17:33:48.372Z,3.50
2018-07-21T17:36:22.624Z,3.17
2018-07-21T17:38:51.771Z,2.90
2018-07-21T17:41:22.461Z,3.37
2018-07-21T17:43:51.133Z,2.90
2018-07-21T17:46:20.458Z,2.43
2018-07-21T17:48:49.083Z,2.80
2018-07-21T17:51:17.893Z,3.23
2018-07-21T17:53:46.597Z,2.63
2018-07-21T17:56:15.402Z,2.83
2018-07-21T17:58:44.082Z,2.63
2018-07-21T18:01:13.031Z,2.37
2018-07-21T18:03:42.076Z,2.80
2018-07-21T18:06:10.832Z,2.80
2018-07-21T18:08:39.700Z,3.10
2018-07-21T18:11:08.370Z,2.60
2018-07-21T18:13:36.940Z,3.10
2018-07-21T18:16:05.658Z,2.80
2018-07-21T18:18:34.219Z,2.90
2018-07-21T18:21:02.915Z,3.00
2018-07-21T18:23:31.593Z,3.07
2018-07-21T18:26:00.238Z,3.80
2018-07-21T18:28:28.920Z,4.30
2018-07-21T18:30:57.592Z,3.60
2018-07-21T18:33:26.257Z,3.47
2018-07-21T18:36:16.085Z,3.50
2018-07-21T18:39:08.184Z,3.17
2018-07-21T18:41:37.116Z,5.83
2018-07-21T18:44:06.022Z,5.60
2018-07-21T18:46:34.764Z,3.70
2018-07-21T18:49:05.183Z,4.20
2018-07-21T18:51:34.113Z,3.77
2018-07-21T18:54:03.384Z,5.30
2018-07-21T18:56:31.984Z,4.17
2018-07-21T18:59:00.988Z,4.00
2018-07-21T19:01:29.798Z,5.07
2018-07-21T19:03:58.355Z,3.87
2018-07-21T19:06:26.921Z,4.00
2018-07-21T19:09:21.452Z,4.00
2018-07-21T19:11:55.077Z,4.00
2018-07-21T19:14:23.373Z,3.97
2018-07-21T19:16:58.336Z,3.50
2018-07-21T19:19:30.813Z,4.23
2018-07-21T19:21:59.118Z,6.70
2018-07-21T19:24:27.569Z,4.13
2018-07-21T19:27:01.163Z,4.40
2018-07-21T19:29:29.526Z,4.10
2018-07-21T19:32:03.202Z,3.87
2018-07-21T19:34:32.645Z,4.27
2018-07-21T19:37:04.644Z,4.17
2018-07-21T19:39:33.088Z,4.33
2018-07-21T19:42:05.140Z,3.87
2018-07-21T19:44:33.705Z,4.23
2018-07-21T19:47:01.992Z,7.20
2018-07-21T19:49:30.581Z,6.50
2018-07-21T19:51:59.420Z,5.90
2018-07-21T19:54:31.243Z,5.00
2018-07-21T19:56:59.891Z,4.10
2018-07-21T19:59:29.200Z,4.50
2018-07-21T20:01:58.113Z,4.47
2018-07-21T20:04:26.392Z,4.80
2018-07-21T20:06:54.699Z,4.40
2018-07-21T20:09:23.116Z,4.20
2018-07-21T20:11:51.418Z,4.10
2018-07-21T20:14:19.995Z,4.43
2018-07-21T20:16:48.847Z,4.53
2018-07-21T20:19:17.268Z,4.70
2018-07-21T20:21:45.583Z,5.87
2018-07-21T20:24:13.896Z,5.67
2018-07-21T20:26:42.196Z,6.10
2018-07-21T20:29:10.543Z,6.57
2018-07-21T20:31:39.677Z,6.67
2018-07-21T20:34:08.039Z,5.50
2018-07-21T20:36:36.453Z,5.90
2018-07-21T20:39:07.523Z,6.07
2018-07-21T20:41:35.937Z,6.00
2018-07-21T20:44:04.372Z,6.37
2018-07-21T20:46:32.808Z,13.20
2018-07-21T20:49:01.207Z,13.00
2018-07-21T20:51:29.641Z,6.97
2018-07-21T20:53:58.273Z,6.70
2018-07-21T20:56:26.751Z,7.57
2018-07-21T20:58:55.681Z,7.20
2018-07-21T21:01:24.050Z,7.10
2018-07-21T21:03:55.949Z,8.60
2018-07-21T21:06:24.380Z,6.40
2018-07-21T21:08:52.617Z,6.20
2018-07-21T21:11:21.010Z,7.67
2018-07-21T21:13:49.323Z,6.90
2018-07-21T21:16:17.652Z,6.67
2018-07-21T21:18:45.965Z,7.53
2018-07-21T21:21:14.385Z,8.73
2018-07-21T21:23:42.651Z,7.53
2018-07-21T21:26:11.063Z,6.17
2018-07-21T21:28:40.420Z,7.63
2018-07-21T21:31:08.837Z,8.47
2018-07-21T21:33:39.055Z,6.00
2018-07-21T21:36:08.550Z,6.20
2018-07-21T21:38:38.803Z,7.53
2018-07-21T21:41:08.324Z,6.37
2018-07-21T21:43:37.720Z,8.33
2018-07-21T21:46:06.443Z,6.70
2018-07-21T21:48:35.844Z,6.17
2018-07-21T21:51:04.261Z,7.00
2018-07-21T21:53:33.768Z,7.10
2018-07-21T21:56:02.466Z,5.90
2018-07-21T21:58:31.945Z,7.13
2018-07-21T22:01:05.266Z,6.43
2018-07-21T22:03:33.728Z,6.33
2018-07-21T22:06:02.848Z,6.83
2018-07-21T22:08:32.125Z,8.03
2018-07-21T22:11:00.654Z,7.90
2018-07-21T22:13:29.610Z,8.20
2018-07-21T22:15:59.610Z,8.07
2018-07-21T22:18:28.900Z,8.27
2018-07-21T22:20:57.419Z,6.93
2018-07-21T22:23:25.758Z,7.10
2018-07-21T22:25:54.577Z,6.90
2018-07-21T22:28:22.908Z,5.90
2018-07-21T22:30:51.228Z,8.70
2018-07-21T22:33:19.573Z,8.27
2018-07-21T22:35:47.868Z,8.20
2018-07-21T22:38:16.880Z,7.03
2018-07-21T22:40:45.258Z,7.63
2018-07-21T22:43:13.644Z,8.20
2018-07-21T22:45:46.227Z,8.17
2018-07-21T22:48:14.892Z,12.47
2018-07-21T22:50:43.253Z,12.70
2018-07-21T22:53:11.692Z,9.10
2018-07-21T22:55:40.052Z,14.37
2018-07-21T22:58:12.352Z,11.60
2018-07-21T23:00:40.782Z,9.10
2018-07-21T23:03:09.117Z,9.20
2018-07-21T23:05:38.114Z,9.43
2018-07-21T23:08:07.617Z,10.50
2018-07-21T23:10:36.499Z,11.50
2018-07-21T23:13:05.032Z,10.07
2018-07-21T23:15:35.289Z,10.87
2018-07-21T23:18:03.703Z,9.10
2018-07-21T23:20:32.101Z,9.63
2018-07-21T23:23:00.446Z,11.67
2018-07-21T23:25:29.594Z,10.57
2018-07-21T23:27:58.017Z,9.13
2018-07-21T23:30:26.293Z,12.10
2018-07-21T23:32:54.586Z,9.50
2018-07-21T23:35:23.903Z,10.00
2018-07-21T23:37:52.226Z,13.37
2018-07-21T23:40:20.548Z,12.23
2018-07-21T23:42:48.904Z,11.90
2018-07-21T23:45:17.309Z,10.17
2018-07-21T23:47:45.595Z,12.87
2018-07-21T23:50:13.928Z,13.80
2018-07-21T23:52:42.198Z,12.70
2018-07-21T23:55:10.527Z,11.17
2018-07-21T23:57:39.165Z,9.37
